^^
Station Historical Data
Daily Summary for July 9, 2017 Units:  English    Metric   Both
« Previous Day
Next Day »
Daily Weekly Monthly Yearly Custom
  High: Low: Average:
Temperature: 80.9 °F 63.0 °F 71.4 °F
Dew Point: 63.3 °F 50.8 °F 56.1 °F
Humidity: 78% 37% 60%
Wind Speed: 6.0mph 0.0mph 1.1mph
Wind Gust: 12.0mph - -
Wind- - SSW
Pressure: 30.03 in 29.87 in -
Precipitation: 0.00 in    
Historical Graphs
 
 
Tabular Data for July 9, 2017
Time Temperature Dew Point Pressure Wind Wind Speed Wind Gust Humidity Rainfall Rate (Hourly) Conditions
00:00 70.5 °F 63.3 °F 29.87 in NNW 1.0 mph 4.0 mph 78% 0.00 in RA
00:15 70.4 °F 62.8 °F 29.88 in NE 2.0 mph 4.0 mph 77% 0.00 in FEW
00:30 70.2 °F 62.3 °F 29.88 in Calm   4.0 mph 76% 0.00 in FEW
00:45 70.1 °F 61.4 °F 29.88 in Calm   9.0 mph 74% 0.00 in FEW
01:15 69.6 °F 61.7 °F 29.89 in Calm   2.0 mph 76% 0.00 in CLR
01:30 69.4 °F 61.5 °F 29.89 in Calm   3.0 mph 76% 0.00 in CLR
01:45 69.5 °F 59.3 °F 29.90 in Calm   5.0 mph 70% 0.00 in CLR
02:00 70.4 °F 57.6 °F 29.90 in Calm   5.0 mph 64% 0.00 in CLR
02:15 69.8 °F 57.5 °F 29.89 in Calm   2.0 mph 65% 0.00 in CLR
02:30 69.0 °F 58.4 °F 29.89 in Calm   4.0 mph 69% 0.00 in CLR
02:45 68.3 °F 58.5 °F 29.90 in Calm   2.0 mph 71% 0.00 in CLR
03:00 68.3 °F 58.5 °F 29.90 in ENE 2.0 mph 6.0 mph 71% 0.00 in CLR
03:15 67.9 °F 58.1 °F 29.90 in Calm   3.0 mph 71% 0.00 in CLR
03:30 67.3 °F 58.0 °F 29.90 in Calm   3.0 mph 72% 0.00 in CLR
03:45 66.9 °F 57.6 °F 29.91 in Calm   2.0 mph 72% 0.00 in CLR
04:00 66.4 °F 57.5 °F 29.91 in Calm   1.0 mph 73% 0.00 in CLR
04:15 66.4 °F 56.3 °F 29.91 in Calm   3.0 mph 70% 0.00 in CLR
04:30 66.3 °F 56.2 °F 29.92 in Calm   2.0 mph 70% 0.00 in CLR
04:45 66.1 °F 56.0 °F 29.92 in Calm   2.0 mph 70% 0.00 in CLR
05:00 65.7 °F 56.4 °F 29.92 in Calm   2.0 mph 72% 0.00 in CLR
05:15 65.4 °F 56.1 °F 29.93 in Calm   2.0 mph 72% 0.00 in CLR
05:30 64.9 °F 55.7 °F 29.93 in Calm   1.0 mph 72% 0.00 in CLR
05:45 64.1 °F 55.6 °F 29.93 in Calm   1.0 mph 74% 0.00 in CLR
06:00 63.0 °F 55.3 °F 29.94 in Calm     76% 0.00 in CLR
06:15 63.4 °F 55.7 °F 29.95 in Calm   1.0 mph 76% 0.00 in CLR
06:30 63.8 °F 55.4 °F 29.95 in Calm   1.0 mph 74% 0.00 in CLR
06:45 64.1 °F 55.6 °F 29.97 in Calm   2.0 mph 74% 0.00 in CLR
07:00 64.5 °F 55.3 °F 29.97 in Calm   2.0 mph 72% 0.00 in CLR
07:15 64.6 °F 55.7 °F 29.97 in Calm   1.0 mph 73% 0.00 in CLR
07:45 66.6 °F 56.9 °F 29.98 in Calm   4.0 mph 71% 0.00 in CLR
08:00 68.1 °F 56.3 °F 29.99 in NE 1.0 mph 8.0 mph 66% 0.00 in CLR
08:15 69.1 °F 55.9 °F 30.00 in NNE 1.0 mph 8.0 mph 63% 0.00 in CLR
08:30 69.9 °F 54.9 °F 30.00 in NNE 3.0 mph 5.0 mph 59% 0.00 in CLR
08:45 70.7 °F 55.7 °F 30.00 in NNE 1.0 mph 6.0 mph 59% 0.00 in CLR
09:00 71.2 °F 55.2 °F 30.00 in NNW 3.0 mph 7.0 mph 57% 0.00 in CLR
09:15 71.8 °F 55.7 °F 30.00 in NNW 1.0 mph 6.0 mph 57% 0.00 in CLR
09:30 72.0 °F 55.4 °F 30.00 in NNE 3.0 mph 7.0 mph 56% 0.00 in CLR
09:45 72.8 °F 56.2 °F 30.01 in NW 1.0 mph 7.0 mph 56% 0.00 in CLR
10:00 73.8 °F 55.6 °F 30.01 in NNW 2.0 mph 8.0 mph 53% 0.00 in CLR
10:15 73.8 °F 57.1 °F 30.01 in North 2.0 mph 10.0 mph 56% 0.00 in CLR
10:30 74.1 °F 56.4 °F 30.01 in NE 1.0 mph 7.0 mph 54% 0.00 in CLR
10:45 74.4 °F 55.1 °F 30.02 in NNE 2.0 mph 9.0 mph 51% 0.00 in CLR
11:00 75.3 °F 55.9 °F 30.02 in Calm   8.0 mph 51% 0.00 in CLR
11:15 76.1 °F 55.5 °F 30.03 in North 1.0 mph 6.0 mph 49% 0.00 in FEW
11:30 76.9 °F 54.5 °F 30.03 in West 1.0 mph 9.0 mph 46% 0.00 in FEW
11:45 77.3 °F 54.3 °F 30.03 in East 5.0 mph 8.0 mph 45% 0.00 in FEW
12:00 76.9 °F 54.0 °F 30.03 in West 1.0 mph 8.0 mph 45% 0.00 in FEW
12:15 78.1 °F 53.8 °F 30.03 in WNW 1.0 mph 8.0 mph 43% 0.00 in FEW
12:30 77.7 °F 53.4 °F 30.03 in North 3.0 mph 7.0 mph 43% 0.00 in FEW
12:45 77.9 °F 53.0 °F 30.03 in WNW 2.0 mph 7.0 mph 42% 0.00 in FEW
13:00 78.5 °F 50.8 °F 30.03 in SSW 6.0 mph 10.0 mph 38% 0.00 in FEW
13:15 78.7 °F 51.7 °F 30.02 in NW 3.0 mph 9.0 mph 39% 0.00 in FEW
13:30 78.4 °F 52.7 °F 30.02 in West 1.0 mph 8.0 mph 41% 0.00 in FEW
13:45 79.3 °F 50.8 °F 30.02 in WSW 5.0 mph 9.0 mph 37% 0.00 in FEW
14:00 78.9 °F 52.5 °F 30.02 in WSW 3.0 mph 12.0 mph 40% 0.00 in FEW
14:15 79.3 °F 52.2 °F 30.02 in SW 3.0 mph 9.0 mph 39% 0.00 in FEW
14:30 80.1 °F 54.3 °F 30.02 in Calm   9.0 mph 41% 0.00 in FEW
14:45 80.8 °F 54.9 °F 30.02 in South 2.0 mph 7.0 mph 41% 0.00 in FEW
15:00 80.3 °F 53.1 °F 30.01 in NW 1.0 mph 7.0 mph 39% 0.00 in FEW
15:15 80.9 °F 54.3 °F 30.02 in NNW 1.0 mph 7.0 mph 40% 0.00 in FEW
TarryTown NY Weather
Compliments of Weather Underground - 1.25 mb